Terminal Aerodrome Forecast
Issued by NWS

Home | Current Version | Previous Version | Text Only | Print | Product List | Glossary On
Versions: 1 2 3 4 5 6 7 8 9 10 11 12 13 14 15 16
000
FTUS41 KAKQ 231800 AAA
TAFPHF
TAF AMD
KPHF 231857Z 2319/2418 06010KT P6SM VCSH FEW020 BKN035
      TEMPO 2319/2322 5SM -SHRA BR BKN018
     FM240000 06005KT P6SM BKN020
     FM241400 05012G18KT P6SM SCT020 BKN030=

USA.gov is the U.S. government's official web portal to all federal, state and local government web resources and services.